Time;durP1;ratioP1;P1;durP2;ratioP2;P2;SDS_P1;SDS_P2;PMS_P1;PMS_P2;Temp;Humidity;BMP_temperature;BMP_pressure;BME280_temperature;BME280_humidity;BME280_pressure;Samples;Min_cycle;Max_cycle;Signal;HPM_P1;HPM_P2
2023/08/11 00:01:07;;;;;;;0.90;0.90;;;15.40;99.90;;;;;;4985162;28;20092;-90
2023/08/11 00:03:34;;;;;;;0.90;0.90;;;15.40;99.90;;;;;;4987661;28;20054;-92
2023/08/11 00:06:00;;;;;;;0.90;0.90;;;15.40;99.90;;;;;;4986690;28;20054;-92
2023/08/11 00:08:26;;;;;;;0.90;0.90;;;15.40;99.90;;;;;;4987257;28;20042;-91
2023/08/11 00:10:52;;;;;;;0.90;0.90;;;15.30;99.90;;;;;;4983618;28;20494;-92
2023/08/11 00:13:20;;;;;;;0.90;0.90;;;15.20;99.90;;;;;;4989117;28;20129;-91
2023/08/11 00:15:46;;;;;;;0.85;0.85;;;15.30;99.90;;;;;;4983593;28;20053;-91
2023/08/11 00:18:13;;;;;;;0.80;0.80;;;15.20;99.90;;;;;;4984163;28;20518;-92
2023/08/11 00:20:39;;;;;;;0.80;0.80;;;15.20;99.90;;;;;;4984376;28;20058;-93
2023/08/11 00:23:05;;;;;;;0.80;0.80;;;15.30;99.90;;;;;;4983409;28;20496;-91
2023/08/11 00:25:31;;;;;;;0.77;0.77;;;15.30;99.90;;;;;;4984644;28;20157;-91
2023/08/11 00:27:58;;;;;;;0.82;0.82;;;15.00;99.90;;;;;;4977976;28;20152;-90
2023/08/11 00:30:24;;;;;;;0.80;0.80;;;15.00;99.90;;;;;;4988126;28;20074;-90
2023/08/11 00:32:50;;;;;;;0.75;0.75;;;15.40;99.90;;;;;;4988854;28;20077;-91
2023/08/11 00:35:16;;;;;;;0.75;0.75;;;15.00;99.90;;;;;;4984789;28;20736;-93
2023/08/11 00:37:42;;;;;;;0.70;0.70;;;15.40;99.90;;;;;;4982258;28;20892;-91
2023/08/11 00:40:08;;;;;;;0.70;0.70;;;15.40;99.90;;;;;;4983462;28;20085;-92
2023/08/11 00:42:35;;;;;;;0.73;0.73;;;15.60;99.90;;;;;;4977830;28;20487;-93
2023/08/11 00:45:01;;;;;;;0.63;0.63;;;15.50;99.90;;;;;;4988227;28;20582;-93
2023/08/11 00:47:27;;;;;;;0.70;0.70;;;15.40;99.90;;;;;;4987420;28;20038;-90
2023/08/11 00:49:53;;;;;;;0.70;0.70;;;15.10;99.90;;;;;;4984030;28;20129;-92
2023/08/11 00:53:15;;;;;;;0.60;0.60;;;15.00;99.90;;;;;;4986179;28;20048;-95
2023/08/11 00:55:41;;;;;;;0.73;0.73;;;15.10;99.90;;;;;;4979334;28;20049;-89
2023/08/11 00:58:07;;;;;;;0.70;0.70;;;14.90;99.90;;;;;;4988687;28;20499;-92
2023/08/11 01:00:33;;;;;;;0.68;0.68;;;15.20;99.90;;;;;;4993950;28;20038;-93
2023/08/11 01:03:02;;;;;;;0.70;0.70;;;15.50;99.90;;;;;;4991940;28;20046;-93
2023/08/11 01:05:34;;;;;;;0.80;0.80;;;15.20;99.90;;;;;;4997099;28;20504;-92
2023/08/11 01:08:24;;;;;;;0.80;0.80;;;15.20;99.90;;;;;;4988672;28;20049;-91
2023/08/11 01:11:07;;;;;;;0.80;0.80;;;15.40;99.90;;;;;;5023652;28;20058;-91
2023/08/11 01:13:38;;;;;;;0.90;0.90;;;15.10;99.90;;;;;;4985360;28;20140;-91
2023/08/11 01:16:04;;;;;;;0.90;0.90;;;15.20;99.90;;;;;;4992511;28;20285;-90
2023/08/11 01:18:33;;;;;;;0.98;0.98;;;15.30;99.90;;;;;;4984167;28;20488;-91
2023/08/11 01:21:06;;;;;;;1.00;1.00;;;15.20;99.90;;;;;;4987324;28;20153;-91
2023/08/11 01:23:32;;;;;;;1.00;1.00;;;15.10;99.90;;;;;;4988165;28;20041;-92
2023/08/11 01:26:02;;;;;;;1.00;1.00;;;15.10;99.90;;;;;;4984396;28;20080;-93
2023/08/11 01:28:28;;;;;;;1.00;1.00;;;15.40;99.90;;;;;;4993059;28;20125;-92
2023/08/11 01:30:53;;;;;;;1.10;1.10;;;15.20;99.90;;;;;;4982781;28;20053;-92
2023/08/11 01:33:19;;;;;;;1.10;1.10;;;14.80;99.90;;;;;;4985457;28;20046;-92
2023/08/11 01:35:45;;;;;;;1.00;1.00;;;15.30;99.90;;;;;;4985956;28;20557;-92
2023/08/11 01:38:12;;;;;;;1.00;1.00;;;15.00;99.90;;;;;;4987780;28;20585;-92
2023/08/11 01:40:38;;;;;;;0.90;0.90;;;14.70;99.90;;;;;;4988486;28;20054;-90
2023/08/11 01:43:06;;;;;;;1.00;1.00;;;14.90;99.90;;;;;;5011429;28;20049;-91
2023/08/11 01:45:32;;;;;;;1.00;1.00;;;14.70;99.90;;;;;;4988359;28;20140;-91
2023/08/11 01:48:03;;;;;;;1.00;1.00;;;15.00;99.90;;;;;;4989798;28;20030;-93
2023/08/11 01:50:30;;;;;;;1.00;1.00;;;14.90;99.90;;;;;;4988033;28;20124;-91
2023/08/11 01:52:56;;;;;;;1.10;1.10;;;15.20;99.90;;;;;;4985973;28;20038;-90
2023/08/11 01:55:24;;;;;;;1.08;1.08;;;14.70;99.90;;;;;;4991396;28;20133;-93
2023/08/11 01:57:51;;;;;;;1.05;1.05;;;14.70;99.90;;;;;;4989248;28;20038;-91
2023/08/11 02:00:17;;;;;;;1.00;1.00;;;14.80;99.90;;;;;;4983549;28;20631;-92
2023/08/11 02:02:43;;;;;;;1.00;1.00;;;14.70;99.90;;;;;;4989366;28;20046;-91
2023/08/11 02:05:15;;;;;;;1.00;1.00;;;14.60;99.90;;;;;;4991713;28;20046;-91
2023/08/11 02:07:42;;;;;;;1.00;1.00;;;14.60;99.90;;;;;;4979331;28;20100;-90
2023/08/11 02:10:21;;;;;;;0.90;0.90;;;14.50;99.90;;;;;;4990289;28;20050;-91
2023/08/11 02:12:47;;;;;;;0.90;0.90;;;14.30;99.90;;;;;;4989748;28;20133;-90
2023/08/11 02:15:13;;;;;;;0.93;0.93;;;14.30;99.90;;;;;;4991817;28;20057;-89
2023/08/11 02:17:39;;;;;;;0.80;0.80;;;14.40;99.90;;;;;;4988511;28;20042;-88
2023/08/11 02:20:24;;;;;;;0.90;0.90;;;14.80;99.90;;;;;;4984455;28;20033;-92
2023/08/11 02:22:50;;;;;;;0.80;0.80;;;14.90;99.90;;;;;;4994632;28;20042;-90
2023/08/11 02:25:16;;;;;;;0.80;0.80;;;14.50;99.90;;;;;;5002273;28;20665;-91
2023/08/11 02:27:43;;;;;;;0.70;0.70;;;14.90;99.90;;;;;;4989976;28;20072;-90
2023/08/11 02:30:11;;;;;;;0.70;0.70;;;14.70;99.90;;;;;;5000229;28;20046;-90
2023/08/11 02:32:38;;;;;;;0.70;0.70;;;14.60;99.90;;;;;;4984030;28;20074;-91
2023/08/11 02:35:05;;;;;;;0.70;0.70;;;15.10;99.90;;;;;;4991514;28;20080;-90
2023/08/11 02:37:32;;;;;;;0.70;0.70;;;14.60;99.90;;;;;;4984699;28;20048;-90
2023/08/11 02:39:58;;;;;;;0.82;0.82;;;14.60;99.90;;;;;;4988821;28;20081;-90
2023/08/11 02:42:25;;;;;;;0.70;0.70;;;14.70;99.90;;;;;;4987399;28;20078;-92
2023/08/11 02:44:51;;;;;;;0.70;0.70;;;14.90;99.90;;;;;;4980547;28;20112;-91
2023/08/11 02:47:17;;;;;;;0.70;0.70;;;15.00;99.90;;;;;;4985643;28;20446;-90
2023/08/11 02:49:43;;;;;;;0.60;0.60;;;14.90;99.90;;;;;;5001050;28;20041;-92
2023/08/11 02:52:10;;;;;;;0.60;0.60;;;14.80;99.90;;;;;;4992105;28;20053;-91
2023/08/11 02:54:39;;;;;;;0.65;0.65;;;14.80;99.90;;;;;;4990990;28;20054;-92
2023/08/11 02:57:05;;;;;;;0.70;0.70;;;14.70;99.90;;;;;;4987281;28;20046;-91
2023/08/11 02:59:31;;;;;;;0.70;0.70;;;14.80;99.90;;;;;;4988824;28;20058;-91
2023/08/11 03:01:57;;;;;;;0.75;0.75;;;14.60;99.90;;;;;;4989201;28;20050;-89
2023/08/11 03:04:23;;;;;;;0.80;0.80;;;14.50;99.90;;;;;;4988204;28;20038;-92
2023/08/11 03:06:51;;;;;;;0.70;0.70;;;14.70;99.90;;;;;;4974928;28;20073;-89
2023/08/11 03:09:17;;;;;;;0.68;0.68;;;14.80;99.90;;;;;;5002279;28;20487;-90
2023/08/11 03:11:43;;;;;;;0.60;0.60;;;14.70;99.90;;;;;;5001360;28;20086;-90
2023/08/11 03:14:08;;;;;;;0.63;0.63;;;14.60;99.90;;;;;;4983791;28;20132;-90
2023/08/11 03:16:35;;;;;;;0.70;0.70;;;14.90;99.90;;;;;;4997658;28;20115;-91
2023/08/11 03:19:01;;;;;;;0.68;0.68;;;14.60;99.90;;;;;;4988145;28;20049;-91
2023/08/11 03:21:27;;;;;;;0.70;0.70;;;14.90;99.90;;;;;;4988297;28;20042;-90
2023/08/11 03:23:53;;;;;;;0.70;0.70;;;14.90;99.90;;;;;;4988040;28;20069;-89
2023/08/11 03:26:18;;;;;;;0.70;0.70;;;14.70;99.90;;;;;;4978948;28;20615;-90
2023/08/11 03:28:44;;;;;;;0.70;0.70;;;14.60;99.90;;;;;;4990567;28;20084;-89
2023/08/11 03:31:10;;;;;;;0.70;0.70;;;14.80;99.90;;;;;;4994964;28;20050;-90
2023/08/11 03:33:35;;;;;;;0.73;0.73;;;14.70;99.90;;;;;;4981097;28;20129;-91
2023/08/11 03:36:02;;;;;;;0.70;0.70;;;14.40;99.90;;;;;;4995859;28;20061;-90
2023/08/11 03:38:28;;;;;;;0.73;0.73;;;14.40;99.90;;;;;;4980922;28;20037;-89
2023/08/11 03:40:54;;;;;;;0.70;0.70;;;14.70;99.90;;;;;;4985471;28;20045;-89
2023/08/11 03:43:19;;;;;;;0.70;0.70;;;14.60;99.90;;;;;;4984048;28;20058;-90
2023/08/11 03:45:45;;;;;;;0.82;0.82;;;14.40;99.90;;;;;;4987801;28;20046;-89
2023/08/11 03:48:11;;;;;;;0.77;0.77;;;14.40;99.90;;;;;;4985895;28;20495;-90
2023/08/11 03:50:37;;;;;;;0.73;0.73;;;14.40;99.90;;;;;;4984410;28;20054;-90
2023/08/11 03:53:03;;;;;;;0.80;0.80;;;14.50;99.90;;;;;;4988727;28;20425;-89
2023/08/11 03:55:29;;;;;;;0.73;0.73;;;14.30;99.90;;;;;;5001868;28;20796;-88
2023/08/11 03:57:54;;;;;;;0.70;0.70;;;14.50;99.90;;;;;;4980119;28;20133;-88
2023/08/11 04:00:20;;;;;;;0.80;0.80;;;14.40;99.90;;;;;;4987265;28;20045;-90
2023/08/11 04:02:46;;;;;;;0.70;0.70;;;14.70;99.90;;;;;;4982212;28;20152;-90
2023/08/11 04:05:12;;;;;;;0.80;0.80;;;14.40;99.90;;;;;;4981912;28;20160;-90
2023/08/11 04:07:38;;;;;;;0.77;0.77;;;14.70;99.90;;;;;;4985038;28;20057;-88
2023/08/11 04:10:05;;;;;;;0.80;0.80;;;14.60;99.90;;;;;;4998280;28;20034;-91
2023/08/11 04:12:33;;;;;;;0.80;0.80;;;14.60;99.90;;;;;;4991211;28;20124;-88
2023/08/11 04:14:59;;;;;;;0.70;0.70;;;14.50;99.90;;;;;;4977610;28;20054;-88
2023/08/11 04:17:26;;;;;;;0.70;0.70;;;14.40;99.90;;;;;;4997361;28;20798;-88
2023/08/11 04:19:55;;;;;;;0.80;0.80;;;14.60;99.90;;;;;;4980095;28;20483;-91
2023/08/11 04:22:21;;;;;;;0.80;0.80;;;14.60;99.90;;;;;;4984459;28;20042;-90
2023/08/11 04:24:46;;;;;;;0.90;0.90;;;14.60;99.90;;;;;;4981358;28;20053;-89
2023/08/11 04:27:12;;;;;;;0.80;0.80;;;14.60;99.90;;;;;;4981399;28;20053;-93
2023/08/11 04:29:41;;;;;;;0.90;0.90;;;14.70;99.90;;;;;;4981538;28;20095;-90
2023/08/11 04:32:07;;;;;;;0.82;0.82;;;14.50;99.90;;;;;;4987821;28;20058;-90
2023/08/11 04:34:33;;;;;;;0.90;0.90;;;14.70;99.90;;;;;;4988866;28;20207;-89
2023/08/11 04:36:59;;;;;;;0.82;0.82;;;14.60;99.90;;;;;;4987701;28;20069;-90
2023/08/11 04:39:25;;;;;;;0.80;0.80;;;14.80;99.90;;;;;;4984821;28;20128;-89
2023/08/11 04:41:51;;;;;;;0.80;0.80;;;14.60;99.90;;;;;;5003709;28;20077;-90
2023/08/11 04:44:17;;;;;;;0.80;0.80;;;14.50;99.90;;;;;;4984537;28;20061;-89
2023/08/11 04:46:43;;;;;;;0.80;0.80;;;14.60;99.90;;;;;;4985245;28;20483;-86
2023/08/11 04:49:08;;;;;;;0.90;0.90;;;14.60;99.90;;;;;;4994563;28;20049;-89
2023/08/11 04:51:34;;;;;;;0.90;0.90;;;14.60;99.90;;;;;;4987979;28;20069;-91
2023/08/11 04:54:02;;;;;;;0.82;0.82;;;14.90;99.90;;;;;;4984484;28;20510;-90
2023/08/11 04:56:28;;;;;;;0.90;0.90;;;14.80;99.90;;;;;;4990193;28;20054;-90
2023/08/11 04:58:55;;;;;;;0.85;0.85;;;14.80;99.90;;;;;;4984545;28;20062;-89
2023/08/11 05:01:23;;;;;;;0.90;0.90;;;15.00;99.90;;;;;;5002425;28;20057;-90
2023/08/11 05:03:55;;;;;;;0.82;0.82;;;15.10;99.90;;;;;;5005935;28;20183;-90
2023/08/11 05:06:21;;;;;;;1.00;1.00;;;15.40;99.90;;;;;;4982914;28;20530;-88
2023/08/11 05:08:47;;;;;;;0.98;0.98;;;15.40;99.90;;;;;;4992542;28;20094;-89
2023/08/11 05:11:13;;;;;;;0.90;0.90;;;15.70;99.90;;;;;;4983902;28;20129;-92
2023/08/11 05:13:39;;;;;;;0.80;0.80;;;16.20;99.90;;;;;;5006012;28;20037;-92
2023/08/11 05:16:04;;;;;;;0.82;0.82;;;17.70;99.90;;;;;;4990802;28;20181;-91
2023/08/11 05:18:30;;;;;;;0.75;0.75;;;18.80;99.90;;;;;;4987314;28;20046;-92
2023/08/11 05:20:56;;;;;;;0.70;0.70;;;19.60;99.90;;;;;;5000710;28;20046;-92
2023/08/11 05:23:25;;;;;;;0.70;0.70;;;20.20;99.90;;;;;;4988435;28;20129;-93
2023/08/11 05:25:50;;;;;;;0.52;0.52;;;20.60;99.90;;;;;;4989269;28;20153;-90
2023/08/11 05:28:16;;;;;;;0.50;0.50;;;20.90;99.90;;;;;;4984885;28;20136;-92
2023/08/11 05:30:56;;;;;;;;;;;;;;;;;;;;;
2023/08/11 05:33:25;;;;;;;0.80;0.80;;;21.50;99.90;;;;;;5005010;28;20070;-92
2023/08/11 05:36:12;;;;;;;0.50;0.50;;;21.80;99.90;;;;;;4990688;28;20084;-96
2023/08/11 05:38:38;;;;;;;0.60;0.60;;;22.00;99.90;;;;;;5000302;28;20058;-93
2023/08/11 05:41:04;;;;;;;0.50;0.50;;;22.10;99.90;;;;;;4988488;28;20034;-93
2023/08/11 05:43:30;;;;;;;0.50;0.50;;;22.70;99.90;;;;;;4989822;28;20042;-90
2023/08/11 05:45:55;;;;;;;0.60;0.60;;;22.90;99.90;;;;;;5002302;28;20053;-93
2023/08/11 05:48:21;;;;;;;0.70;0.70;;;22.80;99.90;;;;;;4985217;28;20050;-93
2023/08/11 05:50:50;;;;;;;0.60;0.60;;;23.30;99.90;;;;;;4986911;28;20503;-91
2023/08/11 05:53:18;;;;;;;0.60;0.60;;;23.30;99.90;;;;;;4977866;28;20046;-92
2023/08/11 05:55:48;;;;;;;0.50;0.50;;;21.80;99.90;;;;;;5001395;28;20042;-93
2023/08/11 05:58:25;;;;;;;0.60;0.60;;;20.60;99.90;;;;;;4988798;28;20045;-95
2023/08/11 06:01:01;;;;;;;;;;;;;;;;;;;;;
2023/08/11 06:03:30;;;;;;;0.60;0.60;;;20.10;99.90;;;;;;4978534;28;20050;-91
2023/08/11 06:06:04;;;;;;;0.60;0.60;;;20.00;99.90;;;;;;4986728;28;20558;-92
2023/08/11 06:08:31;;;;;;;0.60;0.60;;;19.90;99.90;;;;;;4983059;28;20050;-93
2023/08/11 06:10:57;;;;;;;0.60;0.60;;;20.00;99.90;;;;;;4993898;28;20483;-92
2023/08/11 06:13:30;;;;;;;0.60;0.60;;;20.00;99.90;;;;;;4987420;28;20042;-95
2023/08/11 06:15:59;;;;;;;0.60;0.60;;;20.00;99.90;;;;;;4995481;28;20073;-94
2023/08/11 06:18:24;;;;;;;0.50;0.50;;;20.20;99.90;;;;;;4968356;28;20052;-94
2023/08/11 06:20:50;;;;;;;0.50;0.50;;;20.30;99.90;;;;;;4984286;28;20129;-91
2023/08/11 06:23:28;;;;;;;;;;;;;;;;;;;;;
2023/08/11 06:25:54;;;;;;;0.60;0.60;;;20.30;99.90;;;;;;4986487;28;20069;-93
2023/08/11 06:29:08;;;;;;;;;;;;;;;;;;;;;
2023/08/11 06:31:53;;;;;;;0.50;0.50;;;20.80;99.90;;;;;;4905368;29;20462;-93
2023/08/11 06:34:20;;;;;;;0.40;0.40;;;21.10;99.90;;;;;;4927012;29;20529;-94
2023/08/11 06:36:49;;;;;;;0.40;0.40;;;21.10;99.90;;;;;;5016596;28;20049;-89
2023/08/11 06:39:23;;;;;;;0.47;0.47;;;21.10;99.90;;;;;;5002318;28;20436;-95
2023/08/11 06:41:49;;;;;;;0.50;0.50;;;20.90;99.90;;;;;;4981939;28;20050;-90
2023/08/11 06:44:35;;;;;;;;;;;;;;;;;;;;;
2023/08/11 06:47:29;;;;;;;0.60;0.60;;;21.00;99.90;;;;;;4996443;28;20124;-94
2023/08/11 06:49:54;;;;;;;0.60;0.60;;;21.30;99.90;;;;;;4986816;28;20038;-89
2023/08/11 06:52:29;;;;;;;0.50;0.50;;;21.40;99.90;;;;;;4984617;28;20045;-94
2023/08/11 06:54:55;;;;;;;0.40;0.40;;;21.50;99.90;;;;;;4995317;28;20364;-93
2023/08/11 06:57:38;;;;;;;0.40;0.40;;;21.40;99.90;;;;;;4996260;28;20052;-91
2023/08/11 07:00:19;;;;;;;0.45;0.45;;;21.60;99.90;;;;;;4997891;28;20038;-94
2023/08/11 07:02:59;;;;;;;0.50;0.50;;;21.60;99.90;;;;;;5011077;28;20054;-91
2023/08/11 07:05:28;;;;;;;0.55;0.55;;;21.60;99.90;;;;;;4996638;28;20121;-90
2023/08/11 07:07:54;;;;;;;0.40;0.40;;;21.70;99.90;;;;;;4997223;28;20077;-89
2023/08/11 07:10:23;;;;;;;0.40;0.40;;;21.90;99.90;;;;;;4996984;28;20131;-93
2023/08/11 07:12:48;;;;;;;0.40;0.40;;;22.10;99.90;;;;;;5027454;28;20046;-88
2023/08/11 07:15:14;;;;;;;0.50;0.50;;;22.00;99.90;;;;;;5011960;28;20388;-86
2023/08/11 07:17:50;;;;;;;0.40;0.40;;;22.00;99.90;;;;;;5012037;28;20244;-92
2023/08/11 07:20:16;;;;;;;0.43;0.43;;;22.20;99.90;;;;;;4995929;28;20053;-89
2023/08/11 07:22:42;;;;;;;0.40;0.40;;;22.50;99.90;;;;;;4997714;28;20112;-91
2023/08/11 07:25:10;;;;;;;0.40;0.40;;;22.20;99.90;;;;;;4996237;28;20048;-94
2023/08/11 07:27:42;;;;;;;0.40;0.40;;;22.40;99.90;;;;;;4996435;28;20038;-95
2023/08/11 07:30:17;;;;;;;0.40;0.40;;;22.30;99.90;;;;;;4995826;28;20443;-95
2023/08/11 07:32:42;;;;;;;0.40;0.40;;;22.40;99.90;;;;;;4995644;28;20491;-92
2023/08/11 07:35:08;;;;;;;0.40;0.40;;;22.50;99.90;;;;;;4996093;28;20053;-88
2023/08/11 07:37:34;;;;;;;0.40;0.40;;;22.70;99.90;;;;;;5010258;28;20049;-89
2023/08/11 07:40:00;;;;;;;0.40;0.40;;;22.70;99.90;;;;;;5009967;28;20136;-87
2023/08/11 07:42:25;;;;;;;0.40;0.40;;;22.70;99.90;;;;;;5010426;28;20046;-89
2023/08/11 07:44:51;;;;;;;0.50;0.50;;;23.10;99.90;;;;;;5010341;28;20045;-91
2023/08/11 07:47:20;;;;;;;0.40;0.40;;;23.20;99.90;;;;;;4996113;28;20505;-92
2023/08/11 07:49:45;;;;;;;0.40;0.40;;;23.30;99.90;;;;;;4993621;28;20038;-89
2023/08/11 07:52:11;;;;;;;0.40;0.40;;;23.40;99.90;;;;;;4993059;28;20100;-90
2023/08/11 07:54:37;;;;;;;0.40;0.40;;;23.40;99.90;;;;;;4984536;28;20072;-90
2023/08/11 07:57:03;;;;;;;0.40;0.40;;;23.60;99.90;;;;;;4991469;28;20124;-89
2023/08/11 07:59:28;;;;;;;0.40;0.40;;;23.70;99.90;;;;;;4999940;28;20121;-93
2023/08/11 08:01:54;;;;;;;0.40;0.40;;;23.60;99.90;;;;;;4998681;28;20551;-90
2023/08/11 08:04:20;;;;;;;0.50;0.50;;;23.70;99.90;;;;;;4976009;28;20148;-87
2023/08/11 08:06:45;;;;;;;0.50;0.50;;;23.90;99.90;;;;;;4991622;28;20046;-88
2023/08/11 08:09:13;;;;;;;0.30;0.30;;;23.80;99.90;;;;;;4991168;28;20053;-86
2023/08/11 08:11:42;;;;;;;0.40;0.40;;;23.80;99.90;;;;;;4995771;28;20057;-88
2023/08/11 08:14:09;;;;;;;0.30;0.30;;;23.90;99.90;;;;;;4977408;28;20581;-89
2023/08/11 08:16:34;;;;;;;0.35;0.35;;;24.20;99.90;;;;;;4994142;28;20466;-89
2023/08/11 08:19:06;;;;;;;0.50;0.50;;;24.40;99.90;;;;;;4993311;28;20033;-87
2023/08/11 08:21:33;;;;;;;0.30;0.30;;;24.50;99.90;;;;;;5000017;28;20060;-89
2023/08/11 08:23:59;;;;;;;0.30;0.30;;;24.40;99.90;;;;;;4985953;28;20057;-89
2023/08/11 08:26:28;;;;;;;0.30;0.30;;;24.40;99.90;;;;;;4983699;28;20129;-93
2023/08/11 08:28:59;;;;;;;0.30;0.30;;;24.60;99.90;;;;;;4980903;28;20052;-96
2023/08/11 08:31:31;;;;;;;0.30;0.30;;;24.70;99.90;;;;;;4986336;28;20034;-95
2023/08/11 08:34:04;;;;;;;0.30;0.30;;;24.90;99.90;;;;;;4982035;28;20122;-93
2023/08/11 08:36:36;;;;;;;0.30;0.30;;;24.80;99.90;;;;;;4980670;28;20038;-96
2023/08/11 08:39:04;;;;;;;0.30;0.30;;;25.00;99.90;;;;;;5002683;28;20053;-93
2023/08/11 08:41:32;;;;;;;0.30;0.30;;;25.20;99.90;;;;;;4979444;28;20065;-91
2023/08/11 08:44:00;;;;;;;0.32;0.32;;;25.10;99.90;;;;;;4982236;28;20054;-91
2023/08/11 08:46:45;;;;;;;0.30;0.30;;;25.20;99.90;;;;;;4983357;28;20496;-94
2023/08/11 08:49:29;;;;;;;0.40;0.40;;;25.40;99.90;;;;;;4988582;28;20100;-90
2023/08/11 08:51:58;;;;;;;;;;;25.50;99.90;;;;;;4987046;28;20400;-92
2023/08/11 08:54:24;;;;;;;0.30;0.30;;;25.40;99.90;;;;;;4989760;28;19925;-90
2023/08/11 08:57:25;;;;;;;0.30;0.30;;;25.30;99.90;;;;;;4982447;28;20081;-92
2023/08/11 09:00:08;;;;;;;0.50;0.50;;;25.60;99.90;;;;;;4983580;28;20200;-96
2023/08/11 09:02:34;;;;;;;0.30;0.30;;;25.90;99.90;;;;;;4980743;28;20482;-90
2023/08/11 09:05:00;;;;;;;0.30;0.30;;;26.10;99.90;;;;;;4978258;28;20147;-88
2023/08/11 09:07:26;;;;;;;0.30;0.30;;;26.00;99.90;;;;;;4989112;28;20545;-92
2023/08/11 09:09:59;;;;;;;0.30;0.30;;;26.10;99.90;;;;;;4979831;28;20138;-91
2023/08/11 09:12:44;;;;;;;;;;;;;;;;;;;;;
2023/08/11 09:15:12;;;;;;;0.30;0.30;;;26.40;99.90;;;;;;5005721;28;20046;-94
2023/08/11 09:17:41;;;;;;;0.30;0.30;;;26.30;99.90;;;;;;4988299;28;20062;-95
2023/08/11 09:20:17;;;;;;;0.30;0.30;;;26.30;99.90;;;;;;4989555;28;20542;-94
2023/08/11 09:22:49;;;;;;;0.30;0.30;;;26.30;99.90;;;;;;5005667;28;20137;-93
2023/08/11 09:25:39;;;;;;;0.30;0.30;;;26.40;99.90;;;;;;4984801;28;20076;-93
2023/08/11 09:28:21;;;;;;;0.30;0.30;;;26.40;99.90;;;;;;4985029;28;20046;-93
2023/08/11 09:30:48;;;;;;;0.30;0.30;;;26.50;99.90;;;;;;5003108;28;20042;-89
2023/08/11 09:33:14;;;;;;;0.30;0.30;;;26.70;99.90;;;;;;4985625;28;20045;-87
2023/08/11 09:35:43;;;;;;;0.30;0.30;;;26.70;99.90;;;;;;5001275;28;20043;-91
2023/08/11 09:38:26;;;;;;;0.30;0.30;;;26.90;99.90;;;;;;5003256;28;20042;-92
2023/08/11 09:41:08;;;;;;;0.30;0.30;;;26.90;99.90;;;;;;4993461;28;20049;-96
2023/08/11 09:43:35;;;;;;;0.30;0.30;;;26.90;99.90;;;;;;4995175;28;20625;-93
2023/08/11 09:46:01;;;;;;;0.30;0.30;;;27.00;99.90;;;;;;4985905;28;20049;-90
2023/08/11 09:48:27;;;;;;;0.22;0.22;;;27.10;99.90;;;;;;5004380;28;20049;-91
2023/08/11 09:50:56;;;;;;;0.30;0.30;;;27.20;99.90;;;;;;4984658;28;20046;-90
2023/08/11 09:56:57;;;;;;;0.30;0.30;;;27.50;99.90;;;;;;4974083;28;20042;-95
2023/08/11 09:59:24;;;;;;;0.30;0.30;;;27.60;99.90;;;;;;4968410;28;20496;-91
2023/08/11 10:01:59;;;;;;;0.30;0.30;;;27.80;99.90;;;;;;4990645;28;20088;-91
2023/08/11 10:04:33;;;;;;;0.20;0.20;;;27.60;99.90;;;;;;4986986;28;20049;-88
2023/08/11 10:07:03;;;;;;;0.30;0.30;;;27.90;99.90;;;;;;5000560;28;20042;-88
2023/08/11 10:09:31;;;;;;;0.30;0.30;;;27.90;99.90;;;;;;4984289;28;20046;-92
2023/08/11 10:11:59;;;;;;;0.30;0.30;;;27.80;99.90;;;;;;4987419;28;20440;-92
2023/08/11 10:14:27;;;;;;;0.30;0.30;;;27.70;99.90;;;;;;4995606;28;20116;-89
2023/08/11 10:16:53;;;;;;;0.30;0.30;;;28.10;99.90;;;;;;4980498;28;20145;-89
2023/08/11 10:19:23;;;;;;;0.30;0.30;;;28.10;99.90;;;;;;4986422;28;20100;-92
2023/08/11 10:21:49;;;;;;;0.30;0.30;;;28.40;99.90;;;;;;4985266;28;20042;-93
2023/08/11 10:24:14;;;;;;;0.20;0.20;;;28.00;99.90;;;;;;4977751;28;20034;-87
2023/08/11 10:26:40;;;;;;;0.30;0.30;;;28.20;99.90;;;;;;4992131;28;20100;-89
2023/08/11 10:29:07;;;;;;;0.30;0.30;;;28.20;99.90;;;;;;4998606;28;20045;-91
2023/08/11 10:31:33;;;;;;;0.40;0.40;;;28.20;99.90;;;;;;4984727;28;20074;-87
2023/08/11 10:34:08;;;;;;;0.30;0.30;;;28.20;99.90;;;;;;4997413;28;20081;-90
2023/08/11 10:36:34;;;;;;;0.30;0.30;;;28.60;99.90;;;;;;4995627;28;20053;-91
2023/08/11 10:39:04;;;;;;;0.20;0.20;;;28.50;99.90;;;;;;4982981;28;20045;-94
2023/08/11 10:41:33;;;;;;;0.30;0.30;;;28.50;99.90;;;;;;4984185;28;20053;-92
2023/08/11 10:43:59;;;;;;;0.30;0.30;;;28.60;99.90;;;;;;4982784;28;20053;-90
2023/08/11 10:46:32;;;;;;;0.30;0.30;;;28.70;99.90;;;;;;4985884;28;20050;-94
2023/08/11 10:49:04;;;;;;;0.30;0.30;;;28.80;99.90;;;;;;4998581;28;20415;-93
2023/08/11 10:51:37;;;;;;;0.20;0.20;;;29.00;99.90;;;;;;4981840;28;20095;-91
2023/08/11 10:54:06;;;;;;;0.20;0.20;;;29.20;99.90;;;;;;4999034;28;20514;-89
2023/08/11 10:56:34;;;;;;;0.20;0.20;;;29.30;99.90;;;;;;4987206;28;20073;-88
2023/08/11 10:59:22;;;;;;;0.30;0.30;;;28.80;99.90;;;;;;4985149;28;20049;-93
2023/08/11 11:01:53;;;;;;;0.25;0.25;;;28.70;99.90;;;;;;4988989;28;20041;-93
2023/08/11 11:04:26;;;;;;;0.20;0.20;;;29.00;99.90;;;;;;4983662;28;20053;-90
2023/08/11 11:06:52;;;;;;;0.22;0.22;;;28.80;99.90;;;;;;4981118;28;20046;-89
2023/08/11 11:09:24;;;;;;;0.30;0.30;;;29.00;99.90;;;;;;4981029;28;20061;-90
2023/08/11 11:11:51;;;;;;;0.30;0.30;;;28.90;99.90;;;;;;4983508;28;20092;-88
2023/08/11 11:14:21;;;;;;;0.30;0.30;;;29.20;99.90;;;;;;4999843;28;20495;-92
2023/08/11 11:17:06;;;;;;;0.30;0.30;;;29.60;99.90;;;;;;4985807;28;20064;-94
2023/08/11 11:19:33;;;;;;;0.30;0.30;;;29.50;99.90;;;;;;4979626;28;20053;-86
2023/08/11 11:22:01;;;;;;;0.30;0.30;;;29.50;99.90;;;;;;5001202;28;20058;-93
2023/08/11 11:24:27;;;;;;;0.30;0.30;;;29.60;99.90;;;;;;4985352;28;20061;-88
2023/08/11 11:26:53;;;;;;;0.30;0.30;;;29.80;99.90;;;;;;4983435;28;20068;-90
2023/08/11 11:29:23;;;;;;;0.20;0.20;;;29.80;99.90;;;;;;4979831;28;20080;-92
2023/08/11 11:32:06;;;;;;;0.30;0.30;;;30.00;99.90;;;;;;5001754;28;20050;-95
2023/08/11 11:34:37;;;;;;;0.30;0.30;;;29.60;99.90;;;;;;4983199;28;20042;-91
2023/08/11 11:37:03;;;;;;;0.28;0.28;;;29.60;99.90;;;;;;4985510;28;20077;-90
2023/08/11 11:39:28;;;;;;;0.20;0.20;;;29.80;99.90;;;;;;4997351;28;20046;-89
2023/08/11 11:41:54;;;;;;;0.30;0.30;;;29.50;99.90;;;;;;4998735;28;20060;-88
2023/08/11 11:44:20;;;;;;;0.30;0.30;;;29.80;99.90;;;;;;4982112;28;20112;-88
2023/08/11 11:46:46;;;;;;;0.30;0.30;;;29.80;99.90;;;;;;4980849;28;20045;-89
2023/08/11 11:49:15;;;;;;;0.30;0.30;;;29.90;99.90;;;;;;4978487;28;20050;-89
2023/08/11 11:51:42;;;;;;;0.30;0.30;;;30.20;99.90;;;;;;5000191;28;20403;-89
2023/08/11 11:54:07;;;;;;;0.20;0.20;;;30.40;99.90;;;;;;4995086;28;20059;-89
2023/08/11 11:56:34;;;;;;;0.30;0.30;;;30.90;99.90;;;;;;4994505;28;20120;-91
2023/08/11 11:59:00;;;;;;;0.30;0.30;;;30.70;99.90;;;;;;4980047;28;20054;-86
2023/08/11 12:01:28;;;;;;;0.30;0.30;;;30.80;99.90;;;;;;4996309;28;20082;-89
2023/08/11 12:03:59;;;;;;;0.30;0.30;;;30.70;99.90;;;;;;4971499;28;20046;-87
2023/08/11 12:06:27;;;;;;;0.30;0.30;;;30.60;99.90;;;;;;4991217;28;20042;-87
2023/08/11 12:09:08;;;;;;;0.22;0.22;;;30.60;99.90;;;;;;4997875;28;20506;-91
2023/08/11 12:11:35;;;;;;;0.30;0.30;;;30.30;99.90;;;;;;5010605;28;20046;-95
2023/08/11 12:14:02;;;;;;;0.30;0.30;;;29.80;99.90;;;;;;4973230;28;20053;-86
2023/08/11 12:16:28;;;;;;;0.20;0.20;;;30.20;99.90;;;;;;4985223;28;20046;-89
2023/08/11 12:18:59;;;;;;;0.30;0.30;;;30.50;99.90;;;;;;4994507;28;20676;-89
2023/08/11 12:21:27;;;;;;;0.28;0.28;;;30.50;99.90;;;;;;4999908;28;20062;-89
2023/08/11 12:23:52;;;;;;;0.30;0.30;;;30.60;99.90;;;;;;4982812;28;20171;-88
2023/08/11 12:26:18;;;;;;;0.30;0.30;;;30.90;99.90;;;;;;4975231;28;20810;-91
2023/08/11 12:28:45;;;;;;;0.30;0.30;;;30.90;99.90;;;;;;4981644;28;20044;-94
2023/08/11 12:31:11;;;;;;;0.20;0.20;;;29.90;99.90;;;;;;4980419;28;20518;-89
2023/08/11 12:33:38;;;;;;;0.30;0.30;;;29.80;99.90;;;;;;4998883;28;20046;-88
2023/08/11 12:36:04;;;;;;;0.30;0.30;;;30.00;99.90;;;;;;4982646;28;20965;-89
2023/08/11 12:38:30;;;;;;;0.30;0.30;;;30.00;99.90;;;;;;5006473;28;20125;-88
2023/08/11 12:40:57;;;;;;;0.35;0.35;;;29.60;99.90;;;;;;4978133;28;20070;-89
2023/08/11 12:43:23;;;;;;;0.20;0.20;;;29.70;99.90;;;;;;4984564;28;20690;-92
2023/08/11 12:45:49;;;;;;;0.30;0.30;;;29.40;99.90;;;;;;4979517;28;20050;-91
2023/08/11 12:48:19;;;;;;;0.30;0.30;;;29.80;99.90;;;;;;4978934;28;20093;-89
2023/08/11 12:50:44;;;;;;;0.20;0.20;;;30.20;99.90;;;;;;4986945;28;20068;-88
2023/08/11 12:53:13;;;;;;;0.30;0.30;;;30.50;99.90;;;;;;5004450;28;20639;-89
2023/08/11 12:55:39;;;;;;;0.30;0.30;;;30.40;99.90;;;;;;5002491;28;20061;-86
2023/08/11 12:58:05;;;;;;;0.30;0.30;;;30.50;99.90;;;;;;5000966;28;20038;-90
2023/08/11 13:00:31;;;;;;;0.30;0.30;;;30.60;99.90;;;;;;5006234;28;20077;-87
2023/08/11 13:03:06;;;;;;;0.30;0.30;;;30.80;99.90;;;;;;4984302;28;20050;-91
2023/08/11 13:05:35;;;;;;;0.30;0.30;;;30.80;99.90;;;;;;4991184;28;20076;-93